Carolina Beach, North Carolina
Current Conditions -  °F | °C
As of 4:55 AM on Monday 22 Dec 2014 (Local Time) from KSUT Reporting Station
Haze Haze  
Wind Chill:   Ceiling: 300
Heat Index:   Visibility: 5mi
Dew Point:   Wind: 9mph
Humidity: 98%   Direction: 20°NNE
Pressure: 30.03"   Gusts: NA
Location:  34.04°N, 77.89°W
Report Text: KSUT 220955Z AUTO 02008KT 5SM BR OVC003 08/07 A3003 RMK AO2 T00770074
Loading
Personal Weather Stations






























Interactive Weather Map New forecast layout! Learn more

10-Day Weather Forecast

Advertisements
Track Severe Weather on mobile